sensor_id;sensor_type;location;lat;lon;timestamp;P1;durP1;ratioP1;P2;durP2;ratioP2
10450;SDS011;5273;51.290;6.918;2023-08-06T00:00:36;3.60;;;2.80;;
10450;SDS011;5273;51.290;6.918;2023-08-06T00:03:03;5.93;;;2.70;;
10450;SDS011;5273;51.290;6.918;2023-08-06T00:05:30;5.65;;;2.80;;
10450;SDS011;5273;51.290;6.918;2023-08-06T00:07:58;3.13;;;2.83;;
10450;SDS011;5273;51.290;6.918;2023-08-06T00:10:25;4.35;;;2.42;;
10450;SDS011;5273;51.290;6.918;2023-08-06T00:12:52;3.00;;;2.50;;
10450;SDS011;5273;51.290;6.918;2023-08-06T00:15:19;6.40;;;2.60;;
10450;SDS011;5273;51.290;6.918;2023-08-06T00:17:46;3.83;;;2.65;;
10450;SDS011;5273;51.290;6.918;2023-08-06T00:20:12;7.75;;;2.58;;
10450;SDS011;5273;51.290;6.918;2023-08-06T00:22:39;4.95;;;2.67;;
10450;SDS011;5273;51.290;6.918;2023-08-06T00:25:08;3.58;;;2.85;;
10450;SDS011;5273;51.290;6.918;2023-08-06T00:27:35;4.20;;;2.75;;
10450;SDS011;5273;51.290;6.918;2023-08-06T00:30:02;4.22;;;2.72;;
10450;SDS011;5273;51.290;6.918;2023-08-06T00:32:30;4.13;;;2.40;;
10450;SDS011;5273;51.290;6.918;2023-08-06T00:34:56;3.53;;;3.00;;
10450;SDS011;5273;51.290;6.918;2023-08-06T00:37:23;5.53;;;2.90;;
10450;SDS011;5273;51.290;6.918;2023-08-06T00:39:50;6.35;;;2.90;;
10450;SDS011;5273;51.290;6.918;2023-08-06T00:42:18;5.03;;;2.90;;
10450;SDS011;5273;51.290;6.918;2023-08-06T00:44:46;5.53;;;3.15;;
10450;SDS011;5273;51.290;6.918;2023-08-06T00:47:12;4.82;;;2.75;;
10450;SDS011;5273;51.290;6.918;2023-08-06T00:49:40;4.35;;;3.10;;
10450;SDS011;5273;51.290;6.918;2023-08-06T00:52:07;3.65;;;2.58;;
10450;SDS011;5273;51.290;6.918;2023-08-06T00:54:34;4.63;;;2.80;;
10450;SDS011;5273;51.290;6.918;2023-08-06T00:57:02;3.00;;;2.70;;
10450;SDS011;5273;51.290;6.918;2023-08-06T00:59:31;4.25;;;2.88;;
10450;SDS011;5273;51.290;6.918;2023-08-06T01:01:58;4.13;;;2.60;;
10450;SDS011;5273;51.290;6.918;2023-08-06T01:04:25;4.22;;;3.10;;
10450;SDS011;5273;51.290;6.918;2023-08-06T01:06:55;3.50;;;3.05;;
10450;SDS011;5273;51.290;6.918;2023-08-06T01:09:31;5.25;;;3.17;;
10450;SDS011;5273;51.290;6.918;2023-08-06T01:12:06;3.65;;;2.85;;
10450;SDS011;5273;51.290;6.918;2023-08-06T01:14:44;5.25;;;2.95;;
10450;SDS011;5273;51.290;6.918;2023-08-06T01:17:17;4.57;;;3.08;;
10450;SDS011;5273;51.290;6.918;2023-08-06T01:19:44;4.85;;;3.10;;
10450;SDS011;5273;51.290;6.918;2023-08-06T01:22:13;4.25;;;2.85;;
10450;SDS011;5273;51.290;6.918;2023-08-06T01:24:40;3.60;;;2.70;;
10450;SDS011;5273;51.290;6.918;2023-08-06T01:27:14;3.70;;;3.28;;
10450;SDS011;5273;51.290;6.918;2023-08-06T01:29:49;3.55;;;2.72;;
10450;SDS011;5273;51.290;6.918;2023-08-06T01:32:23;6.57;;;3.10;;
10450;SDS011;5273;51.290;6.918;2023-08-06T01:34:51;6.07;;;2.85;;
10450;SDS011;5273;51.290;6.918;2023-08-06T01:37:20;4.53;;;2.90;;
10450;SDS011;5273;51.290;6.918;2023-08-06T01:39:47;6.07;;;3.05;;
10450;SDS011;5273;51.290;6.918;2023-08-06T01:42:13;9.13;;;3.15;;
10450;SDS011;5273;51.290;6.918;2023-08-06T01:44:40;4.65;;;2.70;;
10450;SDS011;5273;51.290;6.918;2023-08-06T01:47:07;3.25;;;2.90;;
10450;SDS011;5273;51.290;6.918;2023-08-06T01:49:34;7.28;;;2.90;;
10450;SDS011;5273;51.290;6.918;2023-08-06T01:52:01;3.67;;;2.80;;
10450;SDS011;5273;51.290;6.918;2023-08-06T01:54:29;4.80;;;3.28;;
10450;SDS011;5273;51.290;6.918;2023-08-06T01:56:56;6.13;;;3.03;;
10450;SDS011;5273;51.290;6.918;2023-08-06T01:59:23;4.72;;;2.92;;
10450;SDS011;5273;51.290;6.918;2023-08-06T02:01:50;5.45;;;2.90;;
10450;SDS011;5273;51.290;6.918;2023-08-06T02:04:17;5.65;;;3.10;;
10450;SDS011;5273;51.290;6.918;2023-08-06T02:06:45;3.25;;;2.80;;
10450;SDS011;5273;51.290;6.918;2023-08-06T02:09:12;3.53;;;2.75;;
10450;SDS011;5273;51.290;6.918;2023-08-06T02:11:40;2.83;;;2.50;;
10450;SDS011;5273;51.290;6.918;2023-08-06T02:14:07;3.25;;;2.58;;
10450;SDS011;5273;51.290;6.918;2023-08-06T02:16:34;4.90;;;2.85;;
10450;SDS011;5273;51.290;6.918;2023-08-06T02:19:01;3.15;;;2.70;;
10450;SDS011;5273;51.290;6.918;2023-08-06T02:21:27;4.40;;;2.60;;
10450;SDS011;5273;51.290;6.918;2023-08-06T02:23:54;3.30;;;2.65;;
10450;SDS011;5273;51.290;6.918;2023-08-06T02:26:21;4.22;;;2.95;;
10450;SDS011;5273;51.290;6.918;2023-08-06T02:28:49;4.80;;;2.80;;
10450;SDS011;5273;51.290;6.918;2023-08-06T02:31:16;5.47;;;2.97;;
10450;SDS011;5273;51.290;6.918;2023-08-06T02:33:43;6.32;;;2.90;;
10450;SDS011;5273;51.290;6.918;2023-08-06T02:36:09;3.45;;;2.92;;
10450;SDS011;5273;51.290;6.918;2023-08-06T02:38:37;3.20;;;2.90;;
10450;SDS011;5273;51.290;6.918;2023-08-06T02:41:04;3.33;;;3.03;;
10450;SDS011;5273;51.290;6.918;2023-08-06T02:43:31;3.75;;;3.08;;
10450;SDS011;5273;51.290;6.918;2023-08-06T02:45:59;5.32;;;2.95;;
10450;SDS011;5273;51.290;6.918;2023-08-06T02:48:26;5.63;;;2.58;;
10450;SDS011;5273;51.290;6.918;2023-08-06T02:50:56;4.68;;;2.92;;
10450;SDS011;5273;51.290;6.918;2023-08-06T02:53:24;4.57;;;3.15;;
10450;SDS011;5273;51.290;6.918;2023-08-06T02:55:51;5.10;;;3.05;;
10450;SDS011;5273;51.290;6.918;2023-08-06T02:58:19;4.47;;;3.47;;
10450;SDS011;5273;51.290;6.918;2023-08-06T03:00:59;3.90;;;2.90;;
10450;SDS011;5273;51.290;6.918;2023-08-06T03:03:27;5.78;;;2.85;;
10450;SDS011;5273;51.290;6.918;2023-08-06T03:05:55;3.70;;;3.03;;
10450;SDS011;5273;51.290;6.918;2023-08-06T03:08:21;3.30;;;3.00;;
10450;SDS011;5273;51.290;6.918;2023-08-06T03:10:49;5.50;;;3.20;;
10450;SDS011;5273;51.290;6.918;2023-08-06T03:13:16;3.33;;;2.90;;
10450;SDS011;5273;51.290;6.918;2023-08-06T03:15:43;3.10;;;2.85;;
10450;SDS011;5273;51.290;6.918;2023-08-06T03:18:11;5.35;;;2.92;;
10450;SDS011;5273;51.290;6.918;2023-08-06T03:20:38;2.78;;;2.58;;
10450;SDS011;5273;51.290;6.918;2023-08-06T03:23:05;3.05;;;2.63;;
10450;SDS011;5273;51.290;6.918;2023-08-06T03:25:34;3.83;;;2.63;;
10450;SDS011;5273;51.290;6.918;2023-08-06T03:28:01;3.17;;;2.40;;
10450;SDS011;5273;51.290;6.918;2023-08-06T03:30:28;4.25;;;2.45;;
10450;SDS011;5273;51.290;6.918;2023-08-06T03:32:55;3.72;;;2.80;;
10450;SDS011;5273;51.290;6.918;2023-08-06T03:35:23;4.18;;;3.00;;
10450;SDS011;5273;51.290;6.918;2023-08-06T03:37:50;3.13;;;2.63;;
10450;SDS011;5273;51.290;6.918;2023-08-06T03:40:17;2.80;;;2.60;;
10450;SDS011;5273;51.290;6.918;2023-08-06T03:42:44;6.00;;;3.05;;
10450;SDS011;5273;51.290;6.918;2023-08-06T03:45:10;3.55;;;2.47;;
10450;SDS011;5273;51.290;6.918;2023-08-06T03:47:37;4.32;;;2.85;;
10450;SDS011;5273;51.290;6.918;2023-08-06T03:50:04;6.35;;;3.03;;
10450;SDS011;5273;51.290;6.918;2023-08-06T03:52:33;6.55;;;2.88;;
10450;SDS011;5273;51.290;6.918;2023-08-06T03:55:00;3.35;;;2.90;;
10450;SDS011;5273;51.290;6.918;2023-08-06T03:57:27;4.40;;;3.03;;
10450;SDS011;5273;51.290;6.918;2023-08-06T03:59:54;4.47;;;2.47;;
10450;SDS011;5273;51.290;6.918;2023-08-06T04:02:21;6.75;;;2.95;;
10450;SDS011;5273;51.290;6.918;2023-08-06T04:04:48;3.25;;;2.60;;
10450;SDS011;5273;51.290;6.918;2023-08-06T04:07:15;3.67;;;2.63;;
10450;SDS011;5273;51.290;6.918;2023-08-06T04:09:56;3.28;;;2.70;;
10450;SDS011;5273;51.290;6.918;2023-08-06T04:12:24;5.47;;;2.50;;
10450;SDS011;5273;51.290;6.918;2023-08-06T04:14:51;4.60;;;2.80;;
10450;SDS011;5273;51.290;6.918;2023-08-06T04:17:18;4.85;;;2.80;;
10450;SDS011;5273;51.290;6.918;2023-08-06T04:19:46;6.85;;;2.90;;
10450;SDS011;5273;51.290;6.918;2023-08-06T04:22:14;5.38;;;2.90;;
10450;SDS011;5273;51.290;6.918;2023-08-06T04:24:41;3.58;;;2.80;;
10450;SDS011;5273;51.290;6.918;2023-08-06T04:27:10;4.15;;;3.08;;
10450;SDS011;5273;51.290;6.918;2023-08-06T04:29:37;4.20;;;2.95;;
10450;SDS011;5273;51.290;6.918;2023-08-06T04:32:05;2.85;;;2.65;;
10450;SDS011;5273;51.290;6.918;2023-08-06T04:34:34;4.93;;;3.20;;
10450;SDS011;5273;51.290;6.918;2023-08-06T04:37:01;9.23;;;3.08;;
10450;SDS011;5273;51.290;6.918;2023-08-06T04:39:28;4.20;;;2.80;;
10450;SDS011;5273;51.290;6.918;2023-08-06T04:41:56;4.10;;;2.78;;
10450;SDS011;5273;51.290;6.918;2023-08-06T04:44:24;3.30;;;3.00;;
10450;SDS011;5273;51.290;6.918;2023-08-06T04:46:51;2.90;;;2.60;;
10450;SDS011;5273;51.290;6.918;2023-08-06T04:49:18;4.50;;;2.65;;
10450;SDS011;5273;51.290;6.918;2023-08-06T04:51:45;5.15;;;2.65;;
10450;SDS011;5273;51.290;6.918;2023-08-06T04:54:12;6.22;;;2.50;;
10450;SDS011;5273;51.290;6.918;2023-08-06T04:56:39;3.13;;;2.45;;
10450;SDS011;5273;51.290;6.918;2023-08-06T04:59:06;4.93;;;3.15;;
10450;SDS011;5273;51.290;6.918;2023-08-06T05:01:34;5.40;;;2.70;;
10450;SDS011;5273;51.290;6.918;2023-08-06T05:04:01;6.00;;;2.78;;
10450;SDS011;5273;51.290;6.918;2023-08-06T05:06:27;2.25;;;2.05;;
10450;SDS011;5273;51.290;6.918;2023-08-06T05:08:54;3.53;;;2.92;;
10450;SDS011;5273;51.290;6.918;2023-08-06T05:11:21;3.08;;;2.53;;
10450;SDS011;5273;51.290;6.918;2023-08-06T05:13:49;7.72;;;3.72;;
10450;SDS011;5273;51.290;6.918;2023-08-06T05:16:15;3.63;;;2.70;;
10450;SDS011;5273;51.290;6.918;2023-08-06T05:18:44;3.08;;;2.47;;
10450;SDS011;5273;51.290;6.918;2023-08-06T05:21:10;3.88;;;2.13;;
10450;SDS011;5273;51.290;6.918;2023-08-06T05:23:37;3.17;;;2.55;;
10450;SDS011;5273;51.290;6.918;2023-08-06T05:26:04;5.65;;;2.53;;
10450;SDS011;5273;51.290;6.918;2023-08-06T05:28:31;4.85;;;2.40;;
10450;SDS011;5273;51.290;6.918;2023-08-06T05:30:57;4.63;;;2.78;;
10450;SDS011;5273;51.290;6.918;2023-08-06T05:33:24;2.92;;;2.63;;
10450;SDS011;5273;51.290;6.918;2023-08-06T05:35:52;2.55;;;2.33;;
10450;SDS011;5273;51.290;6.918;2023-08-06T05:38:19;3.33;;;2.47;;
10450;SDS011;5273;51.290;6.918;2023-08-06T05:40:46;4.05;;;2.75;;
10450;SDS011;5273;51.290;6.918;2023-08-06T05:43:14;2.88;;;2.20;;
10450;SDS011;5273;51.290;6.918;2023-08-06T05:45:43;4.65;;;2.72;;
10450;SDS011;5273;51.290;6.918;2023-08-06T05:48:11;3.83;;;2.45;;
10450;SDS011;5273;51.290;6.918;2023-08-06T05:50:38;3.20;;;2.13;;
10450;SDS011;5273;51.290;6.918;2023-08-06T05:53:06;3.63;;;2.08;;
10450;SDS011;5273;51.290;6.918;2023-08-06T05:55:33;3.10;;;2.10;;
10450;SDS011;5273;51.290;6.918;2023-08-06T05:58:00;3.22;;;2.13;;
10450;SDS011;5273;51.290;6.918;2023-08-06T06:00:27;2.40;;;1.75;;
10450;SDS011;5273;51.290;6.918;2023-08-06T06:02:54;4.85;;;2.13;;
10450;SDS011;5273;51.290;6.918;2023-08-06T06:05:21;2.10;;;1.90;;
10450;SDS011;5273;51.290;6.918;2023-08-06T06:07:48;2.25;;;1.90;;
10450;SDS011;5273;51.290;6.918;2023-08-06T06:10:16;2.40;;;1.92;;
10450;SDS011;5273;51.290;6.918;2023-08-06T06:12:43;3.08;;;1.55;;
10450;SDS011;5273;51.290;6.918;2023-08-06T06:15:09;2.92;;;1.95;;
10450;SDS011;5273;51.290;6.918;2023-08-06T06:17:36;3.92;;;1.80;;
10450;SDS011;5273;51.290;6.918;2023-08-06T06:20:03;3.08;;;1.52;;
10450;SDS011;5273;51.290;6.918;2023-08-06T06:22:31;1.42;;;1.30;;
10450;SDS011;5273;51.290;6.918;2023-08-06T06:24:58;5.13;;;1.70;;
10450;SDS011;5273;51.290;6.918;2023-08-06T06:27:26;3.60;;;1.65;;
10450;SDS011;5273;51.290;6.918;2023-08-06T06:29:53;3.25;;;1.65;;
10450;SDS011;5273;51.290;6.918;2023-08-06T06:32:20;2.15;;;1.60;;
10450;SDS011;5273;51.290;6.918;2023-08-06T06:34:47;4.28;;;1.88;;
10450;SDS011;5273;51.290;6.918;2023-08-06T06:37:14;2.42;;;1.60;;
10450;SDS011;5273;51.290;6.918;2023-08-06T06:39:41;1.90;;;1.27;;
10450;SDS011;5273;51.290;6.918;2023-08-06T06:42:09;1.92;;;1.42;;
10450;SDS011;5273;51.290;6.918;2023-08-06T06:44:37;2.70;;;1.10;;
10450;SDS011;5273;51.290;6.918;2023-08-06T06:47:04;1.88;;;1.23;;
10450;SDS011;5273;51.290;6.918;2023-08-06T06:49:30;2.33;;;1.13;;
10450;SDS011;5273;51.290;6.918;2023-08-06T06:51:57;2.97;;;1.20;;
10450;SDS011;5273;51.290;6.918;2023-08-06T06:54:24;1.30;;;1.17;;
10450;SDS011;5273;51.290;6.918;2023-08-06T06:56:51;3.47;;;1.17;;
10450;SDS011;5273;51.290;6.918;2023-08-06T06:59:17;2.15;;;0.95;;
10450;SDS011;5273;51.290;6.918;2023-08-06T07:01:46;3.50;;;1.33;;
10450;SDS011;5273;51.290;6.918;2023-08-06T07:04:12;1.10;;;1.00;;
10450;SDS011;5273;51.290;6.918;2023-08-06T07:06:39;0.93;;;0.80;;
10450;SDS011;5273;51.290;6.918;2023-08-06T07:09:06;0.68;;;0.68;;
10450;SDS011;5273;51.290;6.918;2023-08-06T07:11:33;1.35;;;1.10;;
10450;SDS011;5273;51.290;6.918;2023-08-06T07:14:00;1.13;;;0.85;;
10450;SDS011;5273;51.290;6.918;2023-08-06T07:16:26;1.67;;;0.90;;
10450;SDS011;5273;51.290;6.918;2023-08-06T07:18:55;2.08;;;0.98;;
10450;SDS011;5273;51.290;6.918;2023-08-06T07:21:22;1.55;;;0.90;;
10450;SDS011;5273;51.290;6.918;2023-08-06T07:23:49;3.35;;;0.80;;
10450;SDS011;5273;51.290;6.918;2023-08-06T07:26:16;1.33;;;1.17;;
10450;SDS011;5273;51.290;6.918;2023-08-06T07:28:42;2.55;;;1.05;;
10450;SDS011;5273;51.290;6.918;2023-08-06T07:31:09;1.38;;;0.98;;
10450;SDS011;5273;51.290;6.918;2023-08-06T07:33:36;1.10;;;0.80;;
10450;SDS011;5273;51.290;6.918;2023-08-06T07:36:08;3.13;;;1.00;;
10450;SDS011;5273;51.290;6.918;2023-08-06T07:38:35;0.85;;;0.68;;
10450;SDS011;5273;51.290;6.918;2023-08-06T07:41:02;1.40;;;0.88;;
10450;SDS011;5273;51.290;6.918;2023-08-06T07:43:30;1.48;;;0.90;;
10450;SDS011;5273;51.290;6.918;2023-08-06T07:45:57;1.17;;;0.98;;
10450;SDS011;5273;51.290;6.918;2023-08-06T07:48:24;1.15;;;0.93;;
10450;SDS011;5273;51.290;6.918;2023-08-06T07:50:51;1.92;;;1.08;;
10450;SDS011;5273;51.290;6.918;2023-08-06T07:53:20;2.05;;;1.05;;
10450;SDS011;5273;51.290;6.918;2023-08-06T07:55:48;0.73;;;0.73;;
10450;SDS011;5273;51.290;6.918;2023-08-06T07:58:16;2.83;;;1.10;;
10450;SDS011;5273;51.290;6.918;2023-08-06T08:00:43;1.20;;;1.10;;
10450;SDS011;5273;51.290;6.918;2023-08-06T08:03:10;1.65;;;1.00;;
10450;SDS011;5273;51.290;6.918;2023-08-06T08:05:38;4.82;;;1.25;;
10450;SDS011;5273;51.290;6.918;2023-08-06T08:08:05;1.50;;;0.85;;
10450;SDS011;5273;51.290;6.918;2023-08-06T08:10:34;1.35;;;0.98;;
10450;SDS011;5273;51.290;6.918;2023-08-06T08:13:01;0.80;;;0.80;;
10450;SDS011;5273;51.290;6.918;2023-08-06T08:15:28;1.70;;;1.00;;
10450;SDS011;5273;51.290;6.918;2023-08-06T08:17:55;2.53;;;1.20;;
10450;SDS011;5273;51.290;6.918;2023-08-06T08:20:22;0.82;;;0.82;;
10450;SDS011;5273;51.290;6.918;2023-08-06T08:22:49;1.00;;;1.00;;
10450;SDS011;5273;51.290;6.918;2023-08-06T08:25:16;1.35;;;0.85;;
10450;SDS011;5273;51.290;6.918;2023-08-06T08:27:44;1.17;;;0.90;;
10450;SDS011;5273;51.290;6.918;2023-08-06T08:30:11;1.13;;;1.02;;
10450;SDS011;5273;51.290;6.918;2023-08-06T08:32:38;1.08;;;1.00;;
10450;SDS011;5273;51.290;6.918;2023-08-06T08:35:05;2.70;;;1.33;;
10450;SDS011;5273;51.290;6.918;2023-08-06T08:37:32;2.60;;;1.23;;
10450;SDS011;5273;51.290;6.918;2023-08-06T08:39:59;2.13;;;1.33;;
10450;SDS011;5273;51.290;6.918;2023-08-06T08:42:26;2.25;;;1.50;;
10450;SDS011;5273;51.290;6.918;2023-08-06T08:44:54;2.42;;;1.58;;
10450;SDS011;5273;51.290;6.918;2023-08-06T08:47:22;2.38;;;1.52;;
10450;SDS011;5273;51.290;6.918;2023-08-06T08:49:52;2.70;;;1.50;;
10450;SDS011;5273;51.290;6.918;2023-08-06T08:52:21;1.70;;;1.60;;
10450;SDS011;5273;51.290;6.918;2023-08-06T08:54:48;3.67;;;2.05;;
10450;SDS011;5273;51.290;6.918;2023-08-06T08:57:17;3.55;;;1.92;;
10450;SDS011;5273;51.290;6.918;2023-08-06T08:59:44;2.00;;;1.80;;
10450;SDS011;5273;51.290;6.918;2023-08-06T09:02:13;5.20;;;1.95;;
10450;SDS011;5273;51.290;6.918;2023-08-06T09:04:42;4.47;;;1.80;;
10450;SDS011;5273;51.290;6.918;2023-08-06T09:07:10;2.20;;;1.95;;
10450;SDS011;5273;51.290;6.918;2023-08-06T09:09:43;1.90;;;1.70;;
10450;SDS011;5273;51.290;6.918;2023-08-06T09:12:13;3.03;;;1.98;;
10450;SDS011;5273;51.290;6.918;2023-08-06T09:14:41;2.15;;;1.65;;
10450;SDS011;5273;51.290;6.918;2023-08-06T09:17:08;5.07;;;2.20;;
10450;SDS011;5273;51.290;6.918;2023-08-06T09:19:37;2.40;;;2.10;;
10450;SDS011;5273;51.290;6.918;2023-08-06T09:22:03;4.18;;;2.30;;
10450;SDS011;5273;51.290;6.918;2023-08-06T09:24:38;8.82;;;2.97;;
10450;SDS011;5273;51.290;6.918;2023-08-06T09:27:06;6.28;;;2.55;;
10450;SDS011;5273;51.290;6.918;2023-08-06T09:29:39;7.00;;;4.43;;
10450;SDS011;5273;51.290;6.918;2023-08-06T09:32:07;5.57;;;4.13;;
10450;SDS011;5273;51.290;6.918;2023-08-06T09:34:34;5.05;;;4.22;;
10450;SDS011;5273;51.290;6.918;2023-08-06T09:37:04;4.82;;;4.32;;
10450;SDS011;5273;51.290;6.918;2023-08-06T09:39:31;6.03;;;4.70;;
10450;SDS011;5273;51.290;6.918;2023-08-06T09:41:58;7.43;;;5.03;;
10450;SDS011;5273;51.290;6.918;2023-08-06T09:44:26;4.78;;;4.20;;
10450;SDS011;5273;51.290;6.918;2023-08-06T09:46:54;4.15;;;3.58;;
10450;SDS011;5273;51.290;6.918;2023-08-06T09:49:23;6.25;;;4.20;;
10450;SDS011;5273;51.290;6.918;2023-08-06T09:51:53;4.00;;;3.60;;
10450;SDS011;5273;51.290;6.918;2023-08-06T09:54:23;4.18;;;3.10;;
10450;SDS011;5273;51.290;6.918;2023-08-06T09:56:51;3.28;;;2.95;;
10450;SDS011;5273;51.290;6.918;2023-08-06T09:59:19;3.65;;;2.83;;
10450;SDS011;5273;51.290;6.918;2023-08-06T10:01:46;4.05;;;3.20;;
10450;SDS011;5273;51.290;6.918;2023-08-06T10:04:14;2.95;;;2.42;;
10450;SDS011;5273;51.290;6.918;2023-08-06T10:06:42;4.32;;;3.00;;
10450;SDS011;5273;51.290;6.918;2023-08-06T10:09:14;4.05;;;3.00;;
10450;SDS011;5273;51.290;6.918;2023-08-06T10:11:41;3.42;;;3.10;;
10450;SDS011;5273;51.290;6.918;2023-08-06T10:14:10;4.28;;;2.80;;
10450;SDS011;5273;51.290;6.918;2023-08-06T10:16:40;4.43;;;2.95;;
10450;SDS011;5273;51.290;6.918;2023-08-06T10:19:09;3.53;;;2.40;;
10450;SDS011;5273;51.290;6.918;2023-08-06T10:21:37;2.30;;;2.10;;
10450;SDS011;5273;51.290;6.918;2023-08-06T10:24:06;3.72;;;2.25;;
10450;SDS011;5273;51.290;6.918;2023-08-06T10:26:36;3.85;;;2.72;;
10450;SDS011;5273;51.290;6.918;2023-08-06T10:32:03;6.07;;;2.88;;
10450;SDS011;5273;51.290;6.918;2023-08-06T10:37:22;2.42;;;1.90;;
10450;SDS011;5273;51.290;6.918;2023-08-06T10:39:50;2.15;;;1.95;;
10450;SDS011;5273;51.290;6.918;2023-08-06T10:42:22;2.95;;;2.00;;
10450;SDS011;5273;51.290;6.918;2023-08-06T10:45:16;3.00;;;2.00;;
10450;SDS011;5273;51.290;6.918;2023-08-06T10:47:43;1.95;;;1.77;;
10450;SDS011;5273;51.290;6.918;2023-08-06T10:50:11;1.98;;;1.80;;
10450;SDS011;5273;51.290;6.918;2023-08-06T10:52:41;3.25;;;1.90;;
10450;SDS011;5273;51.290;6.918;2023-08-06T10:55:08;1.75;;;1.60;;
10450;SDS011;5273;51.290;6.918;2023-08-06T10:57:36;0.93;;;0.93;;
10450;SDS011;5273;51.290;6.918;2023-08-06T11:00:04;1.90;;;1.80;;
10450;SDS011;5273;51.290;6.918;2023-08-06T11:02:33;2.45;;;1.65;;
10450;SDS011;5273;51.290;6.918;2023-08-06T11:05:04;1.58;;;1.30;;
10450;SDS011;5273;51.290;6.918;2023-08-06T11:07:32;1.52;;;1.30;;
10450;SDS011;5273;51.290;6.918;2023-08-06T11:10:01;1.50;;;1.20;;
10450;SDS011;5273;51.290;6.918;2023-08-06T11:12:29;1.25;;;1.15;;
10450;SDS011;5273;51.290;6.918;2023-08-06T11:14:57;1.30;;;1.20;;
10450;SDS011;5273;51.290;6.918;2023-08-06T11:17:24;1.73;;;1.63;;
10450;SDS011;5273;51.290;6.918;2023-08-06T11:19:51;2.42;;;1.48;;
10450;SDS011;5273;51.290;6.918;2023-08-06T11:22:18;1.38;;;1.27;;
10450;SDS011;5273;51.290;6.918;2023-08-06T11:24:46;1.55;;;1.45;;
10450;SDS011;5273;51.290;6.918;2023-08-06T11:27:13;2.45;;;1.60;;
10450;SDS011;5273;51.290;6.918;2023-08-06T11:29:40;1.70;;;1.60;;
10450;SDS011;5273;51.290;6.918;2023-08-06T11:32:09;2.40;;;1.77;;
10450;SDS011;5273;51.290;6.918;2023-08-06T11:34:36;2.40;;;1.80;;
10450;SDS011;5273;51.290;6.918;2023-08-06T11:37:03;1.85;;;1.70;;
10450;SDS011;5273;51.290;6.918;2023-08-06T11:39:31;2.30;;;2.10;;
10450;SDS011;5273;51.290;6.918;2023-08-06T11:41:58;2.97;;;2.60;;
10450;SDS011;5273;51.290;6.918;2023-08-06T11:44:29;3.65;;;2.30;;
10450;SDS011;5273;51.290;6.918;2023-08-06T11:46:57;2.03;;;1.92;;
10450;SDS011;5273;51.290;6.918;2023-08-06T11:49:41;2.30;;;2.10;;
10450;SDS011;5273;51.290;6.918;2023-08-06T11:52:10;2.90;;;2.60;;
10450;SDS011;5273;51.290;6.918;2023-08-06T11:54:40;2.88;;;2.47;;
10450;SDS011;5273;51.290;6.918;2023-08-06T11:57:09;3.08;;;2.30;;
10450;SDS011;5273;51.290;6.918;2023-08-06T11:59:37;2.90;;;2.60;;
10450;SDS011;5273;51.290;6.918;2023-08-06T12:02:05;2.67;;;2.47;;
10450;SDS011;5273;51.290;6.918;2023-08-06T12:07:31;2.67;;;2.40;;
10450;SDS011;5273;51.290;6.918;2023-08-06T12:09:59;2.90;;;2.63;;
10450;SDS011;5273;51.290;6.918;2023-08-06T12:12:26;4.25;;;2.85;;
10450;SDS011;5273;51.290;6.918;2023-08-06T12:14:54;2.78;;;2.58;;
10450;SDS011;5273;51.290;6.918;2023-08-06T12:17:21;2.72;;;2.33;;
10450;SDS011;5273;51.290;6.918;2023-08-06T12:19:48;2.95;;;2.70;;
10450;SDS011;5273;51.290;6.918;2023-08-06T12:22:16;2.40;;;2.20;;
10450;SDS011;5273;51.290;6.918;2023-08-06T12:24:44;4.10;;;2.40;;
10450;SDS011;5273;51.290;6.918;2023-08-06T12:27:12;2.10;;;1.98;;
10450;SDS011;5273;51.290;6.918;2023-08-06T12:29:40;3.10;;;2.30;;
10450;SDS011;5273;51.290;6.918;2023-08-06T12:32:07;1.70;;;1.60;;
10450;SDS011;5273;51.290;6.918;2023-08-06T12:34:34;2.22;;;2.03;;
10450;SDS011;5273;51.290;6.918;2023-08-06T12:37:01;2.47;;;2.00;;
10450;SDS011;5273;51.290;6.918;2023-08-06T12:39:30;1.85;;;1.73;;
10450;SDS011;5273;51.290;6.918;2023-08-06T12:42:00;2.50;;;1.98;;
10450;SDS011;5273;51.290;6.918;2023-08-06T12:44:28;2.03;;;1.90;;
10450;SDS011;5273;51.290;6.918;2023-08-06T12:46:54;2.35;;;2.15;;
10450;SDS011;5273;51.290;6.918;2023-08-06T12:49:21;2.15;;;2.00;;
10450;SDS011;5273;51.290;6.918;2023-08-06T12:51:49;2.47;;;2.28;;
10450;SDS011;5273;51.290;6.918;2023-08-06T12:54:17;5.30;;;2.60;;
10450;SDS011;5273;51.290;6.918;2023-08-06T12:56:46;2.30;;;2.10;;
10450;SDS011;5273;51.290;6.918;2023-08-06T12:59:13;12.50;;;2.45;;
10450;SDS011;5273;51.290;6.918;2023-08-06T13:01:41;3.67;;;2.17;;
10450;SDS011;5273;51.290;6.918;2023-08-06T13:04:08;2.30;;;2.10;;
10450;SDS011;5273;51.290;6.918;2023-08-06T13:06:35;1.90;;;1.77;;
10450;SDS011;5273;51.290;6.918;2023-08-06T13:09:02;2.63;;;2.30;;
10450;SDS011;5273;51.290;6.918;2023-08-06T13:11:30;3.80;;;2.47;;
10450;SDS011;5273;51.290;6.918;2023-08-06T13:14:03;3.00;;;2.17;;
10450;SDS011;5273;51.290;6.918;2023-08-06T13:16:31;2.30;;;1.95;;
10450;SDS011;5273;51.290;6.918;2023-08-06T13:18:58;2.50;;;2.00;;
10450;SDS011;5273;51.290;6.918;2023-08-06T13:21:31;2.60;;;2.25;;
10450;SDS011;5273;51.290;6.918;2023-08-06T13:24:00;2.55;;;1.98;;
10450;SDS011;5273;51.290;6.918;2023-08-06T13:26:27;2.67;;;2.05;;
10450;SDS011;5273;51.290;6.918;2023-08-06T13:28:54;1.80;;;1.70;;
10450;SDS011;5273;51.290;6.918;2023-08-06T13:31:22;1.65;;;1.55;;
10450;SDS011;5273;51.290;6.918;2023-08-06T13:33:49;3.00;;;1.83;;
10450;SDS011;5273;51.290;6.918;2023-08-06T13:36:16;2.40;;;2.05;;
10450;SDS011;5273;51.290;6.918;2023-08-06T13:38:43;2.28;;;2.05;;
10450;SDS011;5273;51.290;6.918;2023-08-06T13:41:10;2.42;;;2.03;;
10450;SDS011;5273;51.290;6.918;2023-08-06T13:43:37;2.65;;;2.15;;
10450;SDS011;5273;51.290;6.918;2023-08-06T13:46:04;3.10;;;2.20;;
10450;SDS011;5273;51.290;6.918;2023-08-06T13:48:32;2.17;;;1.95;;
10450;SDS011;5273;51.290;6.918;2023-08-06T13:50:59;2.22;;;2.03;;
10450;SDS011;5273;51.290;6.918;2023-08-06T13:53:26;4.95;;;2.20;;
10450;SDS011;5273;51.290;6.918;2023-08-06T13:55:55;3.05;;;2.20;;
10450;SDS011;5273;51.290;6.918;2023-08-06T13:58:21;2.95;;;2.45;;
10450;SDS011;5273;51.290;6.918;2023-08-06T14:00:48;2.88;;;2.00;;
10450;SDS011;5273;51.290;6.918;2023-08-06T14:03:18;3.13;;;2.28;;
10450;SDS011;5273;51.290;6.918;2023-08-06T14:05:46;2.30;;;2.10;;
10450;SDS011;5273;51.290;6.918;2023-08-06T14:08:13;4.22;;;2.00;;
10450;SDS011;5273;51.290;6.918;2023-08-06T14:10:40;4.65;;;2.45;;
10450;SDS011;5273;51.290;6.918;2023-08-06T14:13:07;3.20;;;2.22;;
10450;SDS011;5273;51.290;6.918;2023-08-06T14:15:33;2.45;;;2.25;;
10450;SDS011;5273;51.290;6.918;2023-08-06T14:18:00;2.85;;;2.13;;
10450;SDS011;5273;51.290;6.918;2023-08-06T14:20:28;2.30;;;2.10;;
10450;SDS011;5273;51.290;6.918;2023-08-06T14:22:57;2.75;;;2.10;;
10450;SDS011;5273;51.290;6.918;2023-08-06T14:25:24;5.45;;;2.08;;
10450;SDS011;5273;51.290;6.918;2023-08-06T14:27:51;2.75;;;1.90;;
10450;SDS011;5273;51.290;6.918;2023-08-06T14:30:17;3.05;;;1.92;;
10450;SDS011;5273;51.290;6.918;2023-08-06T14:32:45;3.42;;;2.05;;
10450;SDS011;5273;51.290;6.918;2023-08-06T14:35:12;2.15;;;1.77;;
10450;SDS011;5273;51.290;6.918;2023-08-06T14:37:39;2.90;;;2.05;;
10450;SDS011;5273;51.290;6.918;2023-08-06T14:40:08;5.10;;;2.47;;
10450;SDS011;5273;51.290;6.918;2023-08-06T14:42:35;3.13;;;2.33;;
10450;SDS011;5273;51.290;6.918;2023-08-06T14:45:02;2.75;;;2.30;;
10450;SDS011;5273;51.290;6.918;2023-08-06T14:47:30;3.78;;;1.98;;
10450;SDS011;5273;51.290;6.918;2023-08-06T14:49:57;2.78;;;2.28;;
10450;SDS011;5273;51.290;6.918;2023-08-06T14:52:23;2.95;;;2.28;;
10450;SDS011;5273;51.290;6.918;2023-08-06T14:54:50;2.78;;;2.20;;
10450;SDS011;5273;51.290;6.918;2023-08-06T14:57:21;2.88;;;1.70;;
10450;SDS011;5273;51.290;6.918;2023-08-06T14:59:52;3.85;;;1.95;;
10450;SDS011;5273;51.290;6.918;2023-08-06T15:02:19;1.90;;;1.75;;
10450;SDS011;5273;51.290;6.918;2023-08-06T15:04:46;2.40;;;1.83;;
10450;SDS011;5273;51.290;6.918;2023-08-06T15:07:13;2.40;;;2.20;;
10450;SDS011;5273;51.290;6.918;2023-08-06T15:09:40;3.00;;;2.10;;
10450;SDS011;5273;51.290;6.918;2023-08-06T15:12:06;4.07;;;1.98;;